Judi M. — WCX8376 — position and weather

sailwx.info

Track history (hours):
 
Tides and Currents Weather Stations Pressure Air Temp Water Temp Dewpoint Dewpoint Depression Visibility Wind Speed Wind Dir Waves Ship Positions

Judi M.

Owner: MANKE TUG & BARGE CO INC, SHELTON, WA. More information available from US FCC via Universal Licensing System and Coast Guard Vessel Documentation Center.

Last reported at 2014-Dec-18 01:33 UTC. Time now 2014-Dec-19 03:13 UTC.
Position N 47°34' W 122°22'.

Length 29 m; draft 4 m.

Type: Tow > 200 m length. MMSI: 366740920.

Date/timePositionNaut miles runAvg speedWind from/ knotsBaromVisibWave heightAir tempDewpointWater temp
2014-Dec-18 01:33N 47°34' W 122°22'2 2.4
2014-Dec-18 00:33N 47°36' W 122°23'6 6.2
2014-Dec-17 23:33N 47°42' W 122°28'7 6.7
2014-Dec-17 22:33N 47°49' W 122°28'7 6.5
2014-Dec-17 21:33N 47°55' W 122°31'7 6.6
2014-Dec-17 20:33N 47°60' W 122°38'10 7.3
2014-Dec-17 19:15N 48°09' W 122°43'6 8.1
2014-Dec-17 18:30N 48°14' W 122°48'7 7.3
2014-Dec-17 17:31N 48°21' W 122°46'6 6.7
2014-Dec-17 16:33N 48°27' W 122°44'7 7.1
2014-Dec-17 15:33N 48°34' W 122°45'6 6.3
2014-Dec-17 14:33N 48°40' W 122°43'8 7.5
2014-Dec-17 13:33N 48°46' W 122°50'8 7.9
2014-Dec-17 12:33N 48°50' W 123°01'8 7.5
2014-Dec-17 11:33N 48°55' W 123°10'7 7.4
2014-Dec-17 10:33N 48°60' W 123°18'7 7.3
2014-Dec-17 09:33N 49°06' W 123°25'7 6.6
2014-Dec-17 08:33N 49°12' W 123°27'7 7.0
2014-Dec-17 07:33N 49°19' W 123°27'6 6.4
2014-Dec-17 06:33N 49°25' W 123°27'3 0.2
2014-Dec-16 14:27N 49°28' W 123°28'8 7.8
2014-Dec-16 13:28N 49°20' W 123°27'7 8.1
2014-Dec-16 12:33N 49°13' W 123°27'8 7.5
2014-Dec-16 11:33N 49°06' W 123°23'7 7.5
2014-Dec-16 10:33N 49°00' W 123°15'7 7.4
2014-Dec-16 09:33N 48°56' W 123°06'7 6.7
2014-Dec-16 08:33N 48°52' W 122°59'6 6.5
2014-Dec-16 07:33N 48°47' W 122°51'6 6.4
2014-Dec-16 06:33N 48°43' W 122°44'7 6.6
2014-Dec-16 05:33N 48°37' W 122°45'8 7.4
2014-Dec-16 04:33N 48°29' W 122°44'8 8.2
2014-Dec-16 03:31N 48°21' W 122°45'8 8.0
2014-Dec-16 02:30N 48°13' W 122°48'1110.4
2014-Dec-16 01:29N 48°04' W 122°38'9 9.4
2014-Dec-16 00:33N 47°57' W 122°31'8 8.5
2014-Dec-15 23:33N 47°49' W 122°27'9 8.5
2014-Dec-15 22:33N 47°41' W 122°27'7 7.1
2014-Dec-15 21:33N 47°34' W 122°22'0 0.0
2014-Dec-15 20:31N 47°34' W 122°22'0 0.0
2014-Dec-15 19:23N 47°34' W 122°22'0 0.0
2014-Dec-15 18:32N 47°34' W 122°22'0 0.0
2014-Dec-15 17:33N 47°34' W 122°22'0 0.0
2014-Dec-15 16:33N 47°34' W 122°22'0 0.0
2014-Dec-15 15:33N 47°34' W 122°22'0 0.0
2014-Dec-15 14:16N 47°34' W 122°22'0 0.0
2014-Dec-15 13:33N 47°34' W 122°22'0 0.0
2014-Dec-15 12:33N 47°34' W 122°22'0 0.0
2014-Dec-15 11:33N 47°34' W 122°22'0 0.0
2014-Dec-15 10:33N 47°34' W 122°22'0 0.0
2014-Dec-15 09:33N 47°34' W 122°22'0 0.0
2014-Dec-15 07:28N 47°34' W 122°22'0 0.0
2014-Dec-15 06:22N 47°34' W 122°22'0 0.0
2014-Dec-15 05:33N 47°34' W 122°22'0 0.0
2014-Dec-15 04:33N 47°34' W 122°22'2 1.7
2014-Dec-15 03:33N 47°36' W 122°23'7 7.0
2014-Dec-15 02:33N 47°42' W 122°28'8 7.8
2014-Dec-15 01:33N 47°50' W 122°28'7 6.5
2014-Dec-15 00:33N 47°56' W 122°32'6 5.5
2014-Dec-14 23:33N 48°00' W 122°37'9 3.7
2014-Dec-14 21:10N 48°06' W 122°48'0 0.0
2014-Dec-14 15:20N 48°06' W 122°48'0 0.1
2014-Dec-14 14:22N 48°06' W 122°48'4 2.1
2014-Dec-14 12:32N 48°07' W 122°42'7 7.2
2014-Dec-14 11:34N 48°00' W 122°39'8 7.9
2014-Dec-14 10:33N 47°55' W 122°29'9 8.5
2014-Dec-14 09:33N 47°47' W 122°26'8 8.5
2014-Dec-14 08:33N 47°39' W 122°27'6 5.4
2014-Dec-14 07:31N 47°34' W 122°22'0 0.0
2014-Dec-13 10:09N 47°34' W 122°22'0 0.1
2014-Dec-13 09:33N 47°34' W 122°22'2 2.1
2014-Dec-13 08:33N 47°36' W 122°23'6 6.1
2014-Dec-13 07:33N 47°41' W 122°28'7 6.6
2014-Dec-13 06:33N 47°48' W 122°28'7 6.7
2014-Dec-13 05:33N 47°54' W 122°30'7 7.1
2014-Dec-13 04:33N 47°60' W 122°37'15 7.5
2014-Dec-13 02:33N 48°13' W 122°49'8 7.5
2014-Dec-13 01:33N 48°20' W 122°47'7 7.6
2014-Dec-13 00:33N 48°27' W 122°45'9 8.7
2014-Dec-12 23:33N 48°36' W 122°46'7 7.4
2014-Dec-12 22:33N 48°43' W 122°46'8 7.7
2014-Dec-12 21:33N 48°48' W 122°55'8 8.0
2014-Dec-12 20:33N 48°52' W 123°05'8 7.9
2014-Dec-12 19:33N 48°57' W 123°14'7 7.1
2014-Dec-12 18:33N 49°02' W 123°22'6 6.4
2014-Dec-12 17:33N 49°08' W 123°26'7 7.2
2014-Dec-12 16:33N 49°15' W 123°27'10 7.5
2014-Dec-12 15:17N 49°25' W 123°26'3 0.1
2014-Dec-11 14:23N 49°27' W 123°27'6 7.5
2014-Dec-11 13:32N 49°21' W 123°27'8 8.6
2014-Dec-11 12:33N 49°12' W 123°26'9 9.4
2014-Dec-11 11:33N 49°04' W 123°20'9 8.6
2014-Dec-11 10:33N 48°58' W 123°10'8 8.1
2014-Dec-11 09:33N 48°53' W 123°01'8 7.9
2014-Dec-11 08:32N 48°48' W 122°51'7 7.4
2014-Dec-11 07:33N 48°43' W 122°44'6 6.1
2014-Dec-11 06:33N 48°37' W 122°45'6 6.0
2014-Dec-11 05:33N 48°31' W 122°44'17 7.7
2014-Dec-11 03:17N 48°13' W 122°48'8 8.7
2014-Dec-11 02:20N 48°07' W 122°40'7 8.9
2014-Dec-11 01:33N 48°01' W 122°36'8 8.3
2014-Dec-11 00:34N 47°55' W 122°28'9 8.8
2014-Dec-10 23:33N 47°46' W 122°26'9 8.7
2014-Dec-10 22:34N 47°37' W 122°25'4 3.6
2014-Dec-10 21:32N 47°34' W 122°22'0 0.0
2014-Dec-10 20:29N 47°34' W 122°22'0 0.0
2014-Dec-10 19:33N 47°34' W 122°22'0 0.0
2014-Dec-10 18:33N 47°34' W 122°22'0 0.0
2014-Dec-10 17:33N 47°34' W 122°22'0 0.0
2014-Dec-10 16:33N 47°34' W 122°22'0 0.0
2014-Dec-10 15:33N 47°34' W 122°22'0 0.0
2014-Dec-10 14:32N 47°34' W 122°22'0 0.0
2014-Dec-10 13:33N 47°34' W 122°22'0 0.0
2014-Dec-10 12:33N 47°34' W 122°22'0 0.0
2014-Dec-10 11:33N 47°34' W 122°22'0 0.0
2014-Dec-10 10:33N 47°34' W 122°22'0 0.0
2014-Dec-10 09:33N 47°34' W 122°22'0 0.0
2014-Dec-10 08:33N 47°34' W 122°22'0 0.1
2014-Dec-10 07:33N 47°34' W 122°22'3 3.3
2014-Dec-10 06:33N 47°37' W 122°25'5 5.5
2014-Dec-10 05:33N 47°42' W 122°28'6 6.1
2014-Dec-10 04:33N 47°48' W 122°28'6 6.2
2014-Dec-10 03:33N 47°54' W 122°30'6 5.6
2014-Dec-10 02:33N 47°58' W 122°36'6 5.7
2014-Dec-10 01:30N 48°04' W 122°39'4 0.4
2014-Dec-09 13:10N 48°06' W 122°45'4 5.2
2014-Dec-09 12:27N 48°06' W 122°40'6 6.7
2014-Dec-09 11:33N 48°00' W 122°36'3 6.9
2014-Dec-09 11:11N 47°58' W 122°34'4 7.1
2014-Dec-09 10:33N 47°55' W 122°29'2 8.2
2014-Dec-09 10:20N 47°54' W 122°28'6 8.1
2014-Dec-09 09:33N 47°47' W 122°26'0 7.8
2014-Dec-09 09:30N 47°47' W 122°26'8 8.4
2014-Dec-09 08:33N 47°39' W 122°27'0 8.1
2014-Dec-09 08:30N 47°39' W 122°27'6 6.6
2014-Dec-09 07:40N 47°34' W 122°22'0 0.1
2014-Dec-09 07:33N 47°34' W 122°22'0 0.0
2014-Dec-09 06:33N 47°34' W 122°22'0 0.0
2014-Dec-09 06:30N 47°34' W 122°22'0 0.0
2014-Dec-09 05:33N 47°34' W 122°22'0 0.0
2014-Dec-09 05:30N 47°34' W 122°22'0 0.0
2014-Dec-09 04:33N 47°34' W 122°22'0 0.0
2014-Dec-09 04:29N 47°34' W 122°22'0 0.0
2014-Dec-09 03:33N 47°34' W 122°22'0 0.0
2014-Dec-09 03:30N 47°34' W 122°22'0 0.0
2014-Dec-09 02:33N 47°34' W 122°22'0 0.0
2014-Dec-09 02:30N 47°34' W 122°22'0 0.0
2014-Dec-09 01:33N 47°34' W 122°22'0 0.0
2014-Dec-09 01:29N 47°34' W 122°22'0 0.0
2014-Dec-09 00:32N 47°34' W 122°22'0 0.0
2014-Dec-08 23:57N 47°34' W 122°22'0 0.0
2014-Dec-08 23:33N 47°34' W 122°22'0 0.0
2014-Dec-08 23:33N 47°34' W 122°22'0 0.0
2014-Dec-08 22:33N 47°34' W 122°22'0 0.0
2014-Dec-08 22:32N 47°34' W 122°22'0 0.0
2014-Dec-08 21:33N 47°34' W 122°22'0 0.0
2014-Dec-08 21:32N 47°34' W 122°22'0 0.0
2014-Dec-08 20:33N 47°34' W 122°22'0 0.0
2014-Dec-08 20:32N 47°34' W 122°22'0 0.0
2014-Dec-08 19:33N 47°34' W 122°22'0 0.0
2014-Dec-08 19:32N 47°34' W 122°22'0 0.0
2014-Dec-08 18:33N 47°34' W 122°22'0 0.0
2014-Dec-08 18:32N 47°34' W 122°22'0 0.0
2014-Dec-08 17:29N 47°34' W 122°22'0 0.0
2014-Dec-08 16:51N 47°34' W 122°22'0 0.0
2014-Dec-08 16:33N 47°34' W 122°22'0 0.0
2014-Dec-08 16:31N 47°34' W 122°22'0 0.0
2014-Dec-08 15:33N 47°34' W 122°22'0 0.0
2014-Dec-08 15:31N 47°34' W 122°22'0 0.0
2014-Dec-08 14:33N 47°34' W 122°22'0 0.0
2014-Dec-08 14:31N 47°34' W 122°22'0 0.0
2014-Dec-08 13:33N 47°34' W 122°22'0 0.0
2014-Dec-08 13:30N 47°34' W 122°22'0 0.0
2014-Dec-08 12:33N 47°34' W 122°22'0 0.0
2014-Dec-08 12:30N 47°34' W 122°22'0 0.0
2014-Dec-08 11:33N 47°34' W 122°22'0 0.0
2014-Dec-08 11:30N 47°34' W 122°22'0 0.0
2014-Dec-08 10:33N 47°34' W 122°22'0 0.0
2014-Dec-08 10:30N 47°34' W 122°22'0 0.0
2014-Dec-08 09:33N 47°34' W 122°22'0 0.0
2014-Dec-08 09:30N 47°34' W 122°22'0 0.0
2014-Dec-08 08:33N 47°34' W 122°22'0 0.0
2014-Dec-08 08:30N 47°34' W 122°22'0 0.0
2014-Dec-08 07:33N 47°34' W 122°22'0 0.0
2014-Dec-08 07:30N 47°34' W 122°22'0 0.0
2014-Dec-08 06:55N 47°34' W 122°22'0 0.0
2014-Dec-08 06:33N 47°34' W 122°22'0 0.0
2014-Dec-08 05:33N 47°34' W 122°22'0 0.0
2014-Dec-08 05:30N 47°34' W 122°22'0 0.0
2014-Dec-08 04:33N 47°34' W 122°22'0 0.0
2014-Dec-08 04:30N 47°34' W 122°22'0 0.0
2014-Dec-08 03:33N 47°34' W 122°22'0 0.0
2014-Dec-08 03:29N 47°34' W 122°22'0 0.0
2014-Dec-08 02:33N 47°34' W 122°22'0 0.0
2014-Dec-08 02:29N 47°34' W 122°22'  
Track history (hours):
 
Tides and Currents Weather Stations Pressure Air Temp Water Temp Dewpoint Dewpoint Depression Visibility Wind Speed Wind Dir Waves Ship Positions

Judi M.

Owner: MANKE TUG & BARGE CO INC, SHELTON, WA. More information available from US FCC via Universal Licensing System and Coast Guard Vessel Documentation Center.

Last reported at 2014-Dec-18 01:33 UTC. Time now 2014-Dec-19 03:13 UTC.
Position N 47°34' W 122°22'.

Length 29 m; draft 4 m.

Type: Tow > 200 m length. MMSI: 366740920.

Date/timePositionNaut miles runAvg speedWind from/ knotsBaromVisibWave heightAir tempDewpointWater temp
2014-Dec-18 01:33N 47°34' W 122°22'2 2.4
2014-Dec-18 00:33N 47°36' W 122°23'6 6.2
2014-Dec-17 23:33N 47°42' W 122°28'7 6.7
2014-Dec-17 22:33N 47°49' W 122°28'7 6.5
2014-Dec-17 21:33N 47°55' W 122°31'7 6.6
2014-Dec-17 20:33N 47°60' W 122°38'10 7.3
2014-Dec-17 19:15N 48°09' W 122°43'6 8.1
2014-Dec-17 18:30N 48°14' W 122°48'7 7.3
2014-Dec-17 17:31N 48°21' W 122°46'6 6.7
2014-Dec-17 16:33N 48°27' W 122°44'7 7.1
2014-Dec-17 15:33N 48°34' W 122°45'6 6.3
2014-Dec-17 14:33N 48°40' W 122°43'8 7.5
2014-Dec-17 13:33N 48°46' W 122°50'8 7.9
2014-Dec-17 12:33N 48°50' W 123°01'8 7.5
2014-Dec-17 11:33N 48°55' W 123°10'7 7.4
2014-Dec-17 10:33N 48°60' W 123°18'7 7.3
2014-Dec-17 09:33N 49°06' W 123°25'7 6.6
2014-Dec-17 08:33N 49°12' W 123°27'7 7.0
2014-Dec-17 07:33N 49°19' W 123°27'6 6.4
2014-Dec-17 06:33N 49°25' W 123°27'3 0.2
2014-Dec-16 14:27N 49°28' W 123°28'8 7.8
2014-Dec-16 13:28N 49°20' W 123°27'7 8.1
2014-Dec-16 12:33N 49°13' W 123°27'8 7.5
2014-Dec-16 11:33N 49°06' W 123°23'7 7.5
2014-Dec-16 10:33N 49°00' W 123°15'7 7.4
2014-Dec-16 09:33N 48°56' W 123°06'7 6.7
2014-Dec-16 08:33N 48°52' W 122°59'6 6.5
2014-Dec-16 07:33N 48°47' W 122°51'6 6.4
2014-Dec-16 06:33N 48°43' W 122°44'7 6.6
2014-Dec-16 05:33N 48°37' W 122°45'8 7.4
2014-Dec-16 04:33N 48°29' W 122°44'8 8.2
2014-Dec-16 03:31N 48°21' W 122°45'8 8.0
2014-Dec-16 02:30N 48°13' W 122°48'1110.4
2014-Dec-16 01:29N 48°04' W 122°38'9 9.4
2014-Dec-16 00:33N 47°57' W 122°31'8 8.5
2014-Dec-15 23:33N 47°49' W 122°27'9 8.5
2014-Dec-15 22:33N 47°41' W 122°27'7 7.1
2014-Dec-15 21:33N 47°34' W 122°22'0 0.0
2014-Dec-15 20:31N 47°34' W 122°22'0 0.0
2014-Dec-15 19:23N 47°34' W 122°22'0 0.0
2014-Dec-15 18:32N 47°34' W 122°22'0 0.0
2014-Dec-15 17:33N 47°34' W 122°22'0 0.0
2014-Dec-15 16:33N 47°34' W 122°22'0 0.0
2014-Dec-15 15:33N 47°34' W 122°22'0 0.0
2014-Dec-15 14:16N 47°34' W 122°22'0 0.0
2014-Dec-15 13:33N 47°34' W 122°22'0 0.0
2014-Dec-15 12:33N 47°34' W 122°22'0 0.0
2014-Dec-15 11:33N 47°34' W 122°22'0 0.0
2014-Dec-15 10:33N 47°34' W 122°22'0 0.0
2014-Dec-15 09:33N 47°34' W 122°22'0 0.0
2014-Dec-15 07:28N 47°34' W 122°22'0 0.0
2014-Dec-15 06:22N 47°34' W 122°22'0 0.0
2014-Dec-15 05:33N 47°34' W 122°22'0 0.0
2014-Dec-15 04:33N 47°34' W 122°22'2 1.7
2014-Dec-15 03:33N 47°36' W 122°23'7 7.0
2014-Dec-15 02:33N 47°42' W 122°28'8 7.8
2014-Dec-15 01:33N 47°50' W 122°28'7 6.5
2014-Dec-15 00:33N 47°56' W 122°32'6 5.5
2014-Dec-14 23:33N 48°00' W 122°37'9 3.7
2014-Dec-14 21:10N 48°06' W 122°48'0 0.0
2014-Dec-14 15:20N 48°06' W 122°48'0 0.1
2014-Dec-14 14:22N 48°06' W 122°48'4 2.1
2014-Dec-14 12:32N 48°07' W 122°42'7 7.2
2014-Dec-14 11:34N 48°00' W 122°39'8 7.9
2014-Dec-14 10:33N 47°55' W 122°29'9 8.5
2014-Dec-14 09:33N 47°47' W 122°26'8 8.5
2014-Dec-14 08:33N 47°39' W 122°27'6 5.4
2014-Dec-14 07:31N 47°34' W 122°22'0 0.0
2014-Dec-13 10:09N 47°34' W 122°22'0 0.1
2014-Dec-13 09:33N 47°34' W 122°22'2 2.1
2014-Dec-13 08:33N 47°36' W 122°23'6 6.1
2014-Dec-13 07:33N 47°41' W 122°28'7 6.6
2014-Dec-13 06:33N 47°48' W 122°28'7 6.7
2014-Dec-13 05:33N 47°54' W 122°30'7 7.1
2014-Dec-13 04:33N 47°60' W 122°37'15 7.5
2014-Dec-13 02:33N 48°13' W 122°49'8 7.5
2014-Dec-13 01:33N 48°20' W 122°47'7 7.6
2014-Dec-13 00:33N 48°27' W 122°45'9 8.7
2014-Dec-12 23:33N 48°36' W 122°46'7 7.4
2014-Dec-12 22:33N 48°43' W 122°46'8 7.7
2014-Dec-12 21:33N 48°48' W 122°55'8 8.0
2014-Dec-12 20:33N 48°52' W 123°05'8 7.9
2014-Dec-12 19:33N 48°57' W 123°14'7 7.1
2014-Dec-12 18:33N 49°02' W 123°22'6 6.4
2014-Dec-12 17:33N 49°08' W 123°26'7 7.2
2014-Dec-12 16:33N 49°15' W 123°27'10 7.5
2014-Dec-12 15:17N 49°25' W 123°26'3 0.1
2014-Dec-11 14:23N 49°27' W 123°27'6 7.5
2014-Dec-11 13:32N 49°21' W 123°27'8 8.6
2014-Dec-11 12:33N 49°12' W 123°26'9 9.4
2014-Dec-11 11:33N 49°04' W 123°20'9 8.6
2014-Dec-11 10:33N 48°58' W 123°10'8 8.1
2014-Dec-11 09:33N 48°53' W 123°01'8 7.9
2014-Dec-11 08:32N 48°48' W 122°51'7 7.4
2014-Dec-11 07:33N 48°43' W 122°44'6 6.1
2014-Dec-11 06:33N 48°37' W 122°45'6 6.0
2014-Dec-11 05:33N 48°31' W 122°44'17 7.7
2014-Dec-11 03:17N 48°13' W 122°48'8 8.7
2014-Dec-11 02:20N 48°07' W 122°40'7 8.9
2014-Dec-11 01:33N 48°01' W 122°36'8 8.3
2014-Dec-11 00:34N 47°55' W 122°28'9 8.8
2014-Dec-10 23:33N 47°46' W 122°26'9 8.7
2014-Dec-10 22:34N 47°37' W 122°25'4 3.6
2014-Dec-10 21:32N 47°34' W 122°22'0 0.0
2014-Dec-10 20:29N 47°34' W 122°22'0 0.0
2014-Dec-10 19:33N 47°34' W 122°22'0 0.0
2014-Dec-10 18:33N 47°34' W 122°22'0 0.0
2014-Dec-10 17:33N 47°34' W 122°22'0 0.0
2014-Dec-10 16:33N 47°34' W 122°22'0 0.0
2014-Dec-10 15:33N 47°34' W 122°22'0 0.0
2014-Dec-10 14:32N 47°34' W 122°22'0 0.0
2014-Dec-10 13:33N 47°34' W 122°22'0 0.0
2014-Dec-10 12:33N 47°34' W 122°22'0 0.0
2014-Dec-10 11:33N 47°34' W 122°22'0 0.0
2014-Dec-10 10:33N 47°34' W 122°22'0 0.0
2014-Dec-10 09:33N 47°34' W 122°22'0 0.0
2014-Dec-10 08:33N 47°34' W 122°22'0 0.1
2014-Dec-10 07:33N 47°34' W 122°22'3 3.3
2014-Dec-10 06:33N 47°37' W 122°25'5 5.5
2014-Dec-10 05:33N 47°42' W 122°28'6 6.1
2014-Dec-10 04:33N 47°48' W 122°28'6 6.2
2014-Dec-10 03:33N 47°54' W 122°30'6 5.6
2014-Dec-10 02:33N 47°58' W 122°36'6 5.7
2014-Dec-10 01:30N 48°04' W 122°39'4 0.4
2014-Dec-09 13:10N 48°06' W 122°45'4 5.2
2014-Dec-09 12:27N 48°06' W 122°40'6 6.7
2014-Dec-09 11:33N 48°00' W 122°36'3 6.9
2014-Dec-09 11:11N 47°58' W 122°34'4 7.1
2014-Dec-09 10:33N 47°55' W 122°29'2 8.2
2014-Dec-09 10:20N 47°54' W 122°28'6 8.1
2014-Dec-09 09:33N 47°47' W 122°26'0 7.8
2014-Dec-09 09:30N 47°47' W 122°26'8 8.4
2014-Dec-09 08:33N 47°39' W 122°27'0 8.1
2014-Dec-09 08:30N 47°39' W 122°27'6 6.6
2014-Dec-09 07:40N 47°34' W 122°22'0 0.1
2014-Dec-09 07:33N 47°34' W 122°22'0 0.0
2014-Dec-09 06:33N 47°34' W 122°22'0 0.0
2014-Dec-09 06:30N 47°34' W 122°22'0 0.0
2014-Dec-09 05:33N 47°34' W 122°22'0 0.0
2014-Dec-09 05:30N 47°34' W 122°22'0 0.0
2014-Dec-09 04:33N 47°34' W 122°22'0 0.0
2014-Dec-09 04:29N 47°34' W 122°22'0 0.0
2014-Dec-09 03:33N 47°34' W 122°22'0 0.0
2014-Dec-09 03:30N 47°34' W 122°22'0 0.0
2014-Dec-09 02:33N 47°34' W 122°22'0 0.0
2014-Dec-09 02:30N 47°34' W 122°22'0 0.0
2014-Dec-09 01:33N 47°34' W 122°22'0 0.0
2014-Dec-09 01:29N 47°34' W 122°22'0 0.0
2014-Dec-09 00:32N 47°34' W 122°22'0 0.0
2014-Dec-08 23:57N 47°34' W 122°22'0 0.0
2014-Dec-08 23:33N 47°34' W 122°22'0 0.0
2014-Dec-08 23:33N 47°34' W 122°22'0 0.0
2014-Dec-08 22:33N 47°34' W 122°22'0 0.0
2014-Dec-08 22:32N 47°34' W 122°22'0 0.0
2014-Dec-08 21:33N 47°34' W 122°22'0 0.0
2014-Dec-08 21:32N 47°34' W 122°22'0 0.0
2014-Dec-08 20:33N 47°34' W 122°22'0 0.0
2014-Dec-08 20:32N 47°34' W 122°22'0 0.0
2014-Dec-08 19:33N 47°34' W 122°22'0 0.0
2014-Dec-08 19:32N 47°34' W 122°22'0 0.0
2014-Dec-08 18:33N 47°34' W 122°22'0 0.0
2014-Dec-08 18:32N 47°34' W 122°22'0 0.0
2014-Dec-08 17:29N 47°34' W 122°22'0 0.0
2014-Dec-08 16:51N 47°34' W 122°22'0 0.0
2014-Dec-08 16:33N 47°34' W 122°22'0 0.0
2014-Dec-08 16:31N 47°34' W 122°22'0 0.0
2014-Dec-08 15:33N 47°34' W 122°22'0 0.0
2014-Dec-08 15:31N 47°34' W 122°22'0 0.0
2014-Dec-08 14:33N 47°34' W 122°22'0 0.0
2014-Dec-08 14:31N 47°34' W 122°22'0 0.0
2014-Dec-08 13:33N 47°34' W 122°22'0 0.0
2014-Dec-08 13:30N 47°34' W 122°22'0 0.0
2014-Dec-08 12:33N 47°34' W 122°22'0 0.0
2014-Dec-08 12:30N 47°34' W 122°22'0 0.0
2014-Dec-08 11:33N 47°34' W 122°22'0 0.0
2014-Dec-08 11:30N 47°34' W 122°22'0 0.0
2014-Dec-08 10:33N 47°34' W 122°22'0 0.0
2014-Dec-08 10:30N 47°34' W 122°22'0 0.0
2014-Dec-08 09:33N 47°34' W 122°22'0 0.0
2014-Dec-08 09:30N 47°34' W 122°22'0 0.0
2014-Dec-08 08:33N 47°34' W 122°22'0 0.0
2014-Dec-08 08:30N 47°34' W 122°22'0 0.0
2014-Dec-08 07:33N 47°34' W 122°22'0 0.0
2014-Dec-08 07:30N 47°34' W 122°22'0 0.0
2014-Dec-08 06:55N 47°34' W 122°22'0 0.0
2014-Dec-08 06:33N 47°34' W 122°22'0 0.0
2014-Dec-08 05:33N 47°34' W 122°22'0 0.0
2014-Dec-08 05:30N 47°34' W 122°22'0 0.0
2014-Dec-08 04:33N 47°34' W 122°22'0 0.0
2014-Dec-08 04:30N 47°34' W 122°22'0 0.0
2014-Dec-08 03:33N 47°34' W 122°22'0 0.0
2014-Dec-08 03:29N 47°34' W 122°22'0 0.0
2014-Dec-08 02:33N 47°34' W 122°22'0 0.0
2014-Dec-08 02:29N 47°34' W 122°22'  

Dump ship's entire track history